sensor_id;sensor_type;location;lat;lon;timestamp;P1;durP1;ratioP1;P2;durP2;ratioP2
65757;SDS011;52495;52.208;5.158;2023-03-29T00:02:19;4.82;;;2.30;;
65757;SDS011;52495;52.208;5.158;2023-03-29T00:04:46;6.70;;;2.67;;
65757;SDS011;52495;52.208;5.158;2023-03-29T00:07:13;9.57;;;2.65;;
65757;SDS011;52495;52.208;5.158;2023-03-29T00:09:41;4.28;;;2.05;;
65757;SDS011;52495;52.208;5.158;2023-03-29T00:12:08;4.65;;;2.20;;
65757;SDS011;52495;52.208;5.158;2023-03-29T00:14:36;8.57;;;2.92;;
65757;SDS011;52495;52.208;5.158;2023-03-29T00:17:02;3.72;;;2.38;;
65757;SDS011;52495;52.208;5.158;2023-03-29T00:19:29;4.68;;;2.72;;
65757;SDS011;52495;52.208;5.158;2023-03-29T00:21:59;6.78;;;2.60;;
65757;SDS011;52495;52.208;5.158;2023-03-29T00:24:26;7.53;;;2.50;;
65757;SDS011;52495;52.208;5.158;2023-03-29T00:27:01;3.47;;;2.33;;
65757;SDS011;52495;52.208;5.158;2023-03-29T00:29:28;11.07;;;2.65;;
65757;SDS011;52495;52.208;5.158;2023-03-29T00:31:55;8.10;;;3.08;;
65757;SDS011;52495;52.208;5.158;2023-03-29T00:34:22;5.90;;;2.30;;
65757;SDS011;52495;52.208;5.158;2023-03-29T00:36:51;9.02;;;2.63;;
65757;SDS011;52495;52.208;5.158;2023-03-29T00:39:22;3.20;;;2.00;;
65757;SDS011;52495;52.208;5.158;2023-03-29T00:41:50;5.03;;;2.97;;
65757;SDS011;52495;52.208;5.158;2023-03-29T00:47:25;5.18;;;2.55;;
65757;SDS011;52495;52.208;5.158;2023-03-29T00:49:54;5.63;;;2.47;;
65757;SDS011;52495;52.208;5.158;2023-03-29T00:52:25;6.10;;;2.67;;
65757;SDS011;52495;52.208;5.158;2023-03-29T00:54:57;5.82;;;2.83;;
65757;SDS011;52495;52.208;5.158;2023-03-29T00:57:28;6.38;;;2.72;;
65757;SDS011;52495;52.208;5.158;2023-03-29T00:59:57;7.40;;;2.70;;
65757;SDS011;52495;52.208;5.158;2023-03-29T01:02:30;4.90;;;2.47;;
65757;SDS011;52495;52.208;5.158;2023-03-29T01:05:04;6.78;;;2.47;;
65757;SDS011;52495;52.208;5.158;2023-03-29T01:07:37;4.10;;;2.30;;
65757;SDS011;52495;52.208;5.158;2023-03-29T01:10:13;8.93;;;2.60;;
65757;SDS011;52495;52.208;5.158;2023-03-29T01:12:44;7.38;;;3.05;;
65757;SDS011;52495;52.208;5.158;2023-03-29T01:15:16;4.60;;;2.72;;
65757;SDS011;52495;52.208;5.158;2023-03-29T01:17:47;8.70;;;3.20;;
65757;SDS011;52495;52.208;5.158;2023-03-29T01:20:18;6.70;;;2.78;;
65757;SDS011;52495;52.208;5.158;2023-03-29T01:22:53;4.80;;;2.40;;
65757;SDS011;52495;52.208;5.158;2023-03-29T01:25:35;6.45;;;3.10;;
65757;SDS011;52495;52.208;5.158;2023-03-29T01:28:12;6.22;;;2.83;;
65757;SDS011;52495;52.208;5.158;2023-03-29T01:30:43;6.07;;;3.35;;
65757;SDS011;52495;52.208;5.158;2023-03-29T01:33:15;5.82;;;2.78;;
65757;SDS011;52495;52.208;5.158;2023-03-29T01:35:46;7.15;;;2.92;;
65757;SDS011;52495;52.208;5.158;2023-03-29T01:40:48;5.18;;;2.55;;
65757;SDS011;52495;52.208;5.158;2023-03-29T01:43:20;5.38;;;2.50;;
65757;SDS011;52495;52.208;5.158;2023-03-29T01:45:54;8.73;;;3.70;;
65757;SDS011;52495;52.208;5.158;2023-03-29T01:48:28;4.53;;;2.97;;
65757;SDS011;52495;52.208;5.158;2023-03-29T01:51:00;8.23;;;3.10;;
65757;SDS011;52495;52.208;5.158;2023-03-29T01:53:33;6.70;;;2.95;;
65757;SDS011;52495;52.208;5.158;2023-03-29T01:56:05;5.82;;;3.33;;
65757;SDS011;52495;52.208;5.158;2023-03-29T01:58:39;6.40;;;2.58;;
65757;SDS011;52495;52.208;5.158;2023-03-29T02:01:08;6.40;;;3.47;;
65757;SDS011;52495;52.208;5.158;2023-03-29T02:03:43;5.90;;;3.20;;
65757;SDS011;52495;52.208;5.158;2023-03-29T02:06:15;6.43;;;3.13;;
65757;SDS011;52495;52.208;5.158;2023-03-29T02:08:44;6.45;;;3.13;;
65757;SDS011;52495;52.208;5.158;2023-03-29T02:11:13;10.57;;;3.53;;
65757;SDS011;52495;52.208;5.158;2023-03-29T02:13:42;7.28;;;3.28;;
65757;SDS011;52495;52.208;5.158;2023-03-29T02:16:09;6.03;;;3.22;;
65757;SDS011;52495;52.208;5.158;2023-03-29T02:18:38;6.53;;;3.45;;
65757;SDS011;52495;52.208;5.158;2023-03-29T02:21:06;4.85;;;2.80;;
65757;SDS011;52495;52.208;5.158;2023-03-29T02:23:39;4.75;;;2.88;;
65757;SDS011;52495;52.208;5.158;2023-03-29T02:26:11;6.60;;;3.13;;
65757;SDS011;52495;52.208;5.158;2023-03-29T02:28:39;6.82;;;4.00;;
65757;SDS011;52495;52.208;5.158;2023-03-29T02:31:10;5.78;;;3.30;;
65757;SDS011;52495;52.208;5.158;2023-03-29T02:33:44;5.05;;;2.70;;
65757;SDS011;52495;52.208;5.158;2023-03-29T02:36:17;9.65;;;3.60;;
65757;SDS011;52495;52.208;5.158;2023-03-29T02:38:50;6.25;;;3.25;;
65757;SDS011;52495;52.208;5.158;2023-03-29T02:41:17;5.10;;;3.20;;
65757;SDS011;52495;52.208;5.158;2023-03-29T02:43:45;6.28;;;3.38;;
65757;SDS011;52495;52.208;5.158;2023-03-29T02:46:15;6.30;;;3.58;;
65757;SDS011;52495;52.208;5.158;2023-03-29T02:48:44;6.57;;;3.33;;
65757;SDS011;52495;52.208;5.158;2023-03-29T02:51:14;8.73;;;3.78;;
65757;SDS011;52495;52.208;5.158;2023-03-29T02:53:44;7.65;;;3.60;;
65757;SDS011;52495;52.208;5.158;2023-03-29T02:56:17;11.33;;;4.43;;
65757;SDS011;52495;52.208;5.158;2023-03-29T02:58:44;4.68;;;3.40;;
65757;SDS011;52495;52.208;5.158;2023-03-29T03:01:11;9.52;;;3.50;;
65757;SDS011;52495;52.208;5.158;2023-03-29T03:03:40;5.35;;;3.42;;
65757;SDS011;52495;52.208;5.158;2023-03-29T03:06:07;7.20;;;3.92;;
65757;SDS011;52495;52.208;5.158;2023-03-29T03:08:34;6.75;;;3.28;;
65757;SDS011;52495;52.208;5.158;2023-03-29T03:11:00;8.88;;;3.70;;
65757;SDS011;52495;52.208;5.158;2023-03-29T03:13:27;6.80;;;3.33;;
65757;SDS011;52495;52.208;5.158;2023-03-29T03:15:55;6.43;;;3.42;;
65757;SDS011;52495;52.208;5.158;2023-03-29T03:18:21;6.70;;;3.40;;
65757;SDS011;52495;52.208;5.158;2023-03-29T03:20:57;9.88;;;4.22;;
65757;SDS011;52495;52.208;5.158;2023-03-29T03:23:25;9.20;;;3.50;;
65757;SDS011;52495;52.208;5.158;2023-03-29T03:25:53;5.93;;;3.60;;
65757;SDS011;52495;52.208;5.158;2023-03-29T03:28:20;7.65;;;3.40;;
65757;SDS011;52495;52.208;5.158;2023-03-29T03:30:48;9.85;;;3.55;;
65757;SDS011;52495;52.208;5.158;2023-03-29T03:33:15;5.80;;;3.45;;
65757;SDS011;52495;52.208;5.158;2023-03-29T03:36:02;8.65;;;3.70;;
65757;SDS011;52495;52.208;5.158;2023-03-29T03:38:31;7.22;;;3.65;;
65757;SDS011;52495;52.208;5.158;2023-03-29T03:40:59;9.13;;;3.70;;
65757;SDS011;52495;52.208;5.158;2023-03-29T03:43:28;7.28;;;3.70;;
65757;SDS011;52495;52.208;5.158;2023-03-29T03:45:56;6.78;;;3.70;;
65757;SDS011;52495;52.208;5.158;2023-03-29T03:48:24;6.35;;;3.72;;
65757;SDS011;52495;52.208;5.158;2023-03-29T03:50:57;7.35;;;3.92;;
65757;SDS011;52495;52.208;5.158;2023-03-29T03:53:30;9.23;;;3.70;;
65757;SDS011;52495;52.208;5.158;2023-03-29T03:56:13;6.57;;;3.30;;
65757;SDS011;52495;52.208;5.158;2023-03-29T03:59:03;7.28;;;3.95;;
65757;SDS011;52495;52.208;5.158;2023-03-29T04:01:51;7.55;;;3.63;;
65757;SDS011;52495;52.208;5.158;2023-03-29T04:04:20;9.90;;;3.78;;
65757;SDS011;52495;52.208;5.158;2023-03-29T04:06:59;6.32;;;3.80;;
65757;SDS011;52495;52.208;5.158;2023-03-29T04:09:59;7.63;;;3.80;;
65757;SDS011;52495;52.208;5.158;2023-03-29T04:13:02;5.25;;;3.35;;
65757;SDS011;52495;52.208;5.158;2023-03-29T04:15:32;9.15;;;3.80;;
65757;SDS011;52495;52.208;5.158;2023-03-29T04:18:05;7.90;;;3.17;;
65757;SDS011;52495;52.208;5.158;2023-03-29T04:20:38;10.15;;;3.83;;
65757;SDS011;52495;52.208;5.158;2023-03-29T04:23:05;6.05;;;3.70;;
65757;SDS011;52495;52.208;5.158;2023-03-29T04:25:36;9.05;;;3.72;;
65757;SDS011;52495;52.208;5.158;2023-03-29T04:28:21;6.07;;;3.55;;
65757;SDS011;52495;52.208;5.158;2023-03-29T04:30:55;7.35;;;4.00;;
65757;SDS011;52495;52.208;5.158;2023-03-29T04:33:37;8.98;;;3.83;;
65757;SDS011;52495;52.208;5.158;2023-03-29T04:36:04;7.10;;;3.72;;
65757;SDS011;52495;52.208;5.158;2023-03-29T04:38:32;6.60;;;3.75;;
65757;SDS011;52495;52.208;5.158;2023-03-29T04:41:01;7.00;;;3.72;;
65757;SDS011;52495;52.208;5.158;2023-03-29T04:43:49;8.48;;;4.10;;
65757;SDS011;52495;52.208;5.158;2023-03-29T04:46:20;6.22;;;3.55;;
65757;SDS011;52495;52.208;5.158;2023-03-29T04:49:09;8.05;;;3.45;;
65757;SDS011;52495;52.208;5.158;2023-03-29T04:51:39;10.07;;;3.65;;
65757;SDS011;52495;52.208;5.158;2023-03-29T04:54:07;6.93;;;3.30;;
65757;SDS011;52495;52.208;5.158;2023-03-29T04:57:04;7.88;;;3.53;;
65757;SDS011;52495;52.208;5.158;2023-03-29T04:59:52;8.68;;;3.42;;
65757;SDS011;52495;52.208;5.158;2023-03-29T05:02:39;5.82;;;3.40;;
65757;SDS011;52495;52.208;5.158;2023-03-29T05:05:07;7.95;;;3.70;;
65757;SDS011;52495;52.208;5.158;2023-03-29T05:07:34;10.38;;;3.60;;
65757;SDS011;52495;52.208;5.158;2023-03-29T05:10:02;7.97;;;3.60;;
65757;SDS011;52495;52.208;5.158;2023-03-29T05:12:32;8.98;;;4.72;;
65757;SDS011;52495;52.208;5.158;2023-03-29T05:14:58;8.55;;;4.30;;
65757;SDS011;52495;52.208;5.158;2023-03-29T05:17:26;8.32;;;4.10;;
65757;SDS011;52495;52.208;5.158;2023-03-29T05:19:59;6.72;;;3.63;;
65757;SDS011;52495;52.208;5.158;2023-03-29T05:22:33;8.23;;;4.15;;
65757;SDS011;52495;52.208;5.158;2023-03-29T05:25:04;9.10;;;5.68;;
65757;SDS011;52495;52.208;5.158;2023-03-29T05:27:33;8.13;;;3.90;;
65757;SDS011;52495;52.208;5.158;2023-03-29T05:30:06;7.65;;;3.83;;
65757;SDS011;52495;52.208;5.158;2023-03-29T05:32:45;7.60;;;4.28;;
65757;SDS011;52495;52.208;5.158;2023-03-29T05:35:15;9.68;;;4.18;;
65757;SDS011;52495;52.208;5.158;2023-03-29T05:37:42;9.52;;;3.95;;
65757;SDS011;52495;52.208;5.158;2023-03-29T05:40:11;7.35;;;3.75;;
65757;SDS011;52495;52.208;5.158;2023-03-29T05:43:01;8.00;;;4.30;;
65757;SDS011;52495;52.208;5.158;2023-03-29T05:45:28;6.18;;;3.92;;
65757;SDS011;52495;52.208;5.158;2023-03-29T05:47:56;9.43;;;4.85;;
65757;SDS011;52495;52.208;5.158;2023-03-29T05:50:23;8.52;;;4.00;;
65757;SDS011;52495;52.208;5.158;2023-03-29T05:52:50;8.98;;;4.43;;
65757;SDS011;52495;52.208;5.158;2023-03-29T05:55:17;10.25;;;4.07;;
65757;SDS011;52495;52.208;5.158;2023-03-29T05:57:44;7.75;;;3.88;;
65757;SDS011;52495;52.208;5.158;2023-03-29T06:00:14;9.77;;;4.40;;
65757;SDS011;52495;52.208;5.158;2023-03-29T06:02:53;9.32;;;4.60;;
65757;SDS011;52495;52.208;5.158;2023-03-29T06:05:21;5.95;;;4.07;;
65757;SDS011;52495;52.208;5.158;2023-03-29T06:07:58;7.32;;;4.07;;
65757;SDS011;52495;52.208;5.158;2023-03-29T06:10:44;7.32;;;3.47;;
65757;SDS011;52495;52.208;5.158;2023-03-29T06:13:25;9.20;;;4.28;;
65757;SDS011;52495;52.208;5.158;2023-03-29T06:15:53;12.82;;;4.07;;
65757;SDS011;52495;52.208;5.158;2023-03-29T06:18:23;9.57;;;4.15;;
65757;SDS011;52495;52.208;5.158;2023-03-29T06:20:50;9.57;;;4.78;;
65757;SDS011;52495;52.208;5.158;2023-03-29T06:23:18;6.90;;;3.78;;
65757;SDS011;52495;52.208;5.158;2023-03-29T06:25:46;7.53;;;4.63;;
65757;SDS011;52495;52.208;5.158;2023-03-29T06:28:15;9.02;;;4.68;;
65757;SDS011;52495;52.208;5.158;2023-03-29T06:30:43;9.15;;;5.05;;
65757;SDS011;52495;52.208;5.158;2023-03-29T06:33:12;7.65;;;4.68;;
65757;SDS011;52495;52.208;5.158;2023-03-29T06:36:01;9.27;;;4.70;;
65757;SDS011;52495;52.208;5.158;2023-03-29T06:38:29;7.72;;;4.43;;
65757;SDS011;52495;52.208;5.158;2023-03-29T06:40:59;8.82;;;4.93;;
65757;SDS011;52495;52.208;5.158;2023-03-29T06:43:34;9.73;;;5.05;;
65757;SDS011;52495;52.208;5.158;2023-03-29T06:46:05;10.93;;;5.07;;
65757;SDS011;52495;52.208;5.158;2023-03-29T06:48:50;11.32;;;5.18;;
65757;SDS011;52495;52.208;5.158;2023-03-29T06:51:18;10.18;;;5.10;;
65757;SDS011;52495;52.208;5.158;2023-03-29T06:53:45;10.82;;;5.68;;
65757;SDS011;52495;52.208;5.158;2023-03-29T06:56:12;12.70;;;5.82;;
65757;SDS011;52495;52.208;5.158;2023-03-29T06:58:41;7.15;;;4.30;;
65757;SDS011;52495;52.208;5.158;2023-03-29T07:01:38;7.35;;;4.28;;
65757;SDS011;52495;52.208;5.158;2023-03-29T07:04:14;11.32;;;5.55;;
65757;SDS011;52495;52.208;5.158;2023-03-29T07:07:01;9.75;;;5.93;;
65757;SDS011;52495;52.208;5.158;2023-03-29T07:09:32;11.00;;;5.63;;
65757;SDS011;52495;52.208;5.158;2023-03-29T07:12:19;10.20;;;5.30;;
65757;SDS011;52495;52.208;5.158;2023-03-29T07:14:47;13.88;;;5.70;;
65757;SDS011;52495;52.208;5.158;2023-03-29T07:17:14;9.57;;;6.45;;
65757;SDS011;52495;52.208;5.158;2023-03-29T07:19:44;12.18;;;6.15;;
65757;SDS011;52495;52.208;5.158;2023-03-29T07:22:30;10.25;;;5.78;;
65757;SDS011;52495;52.208;5.158;2023-03-29T07:24:59;11.82;;;6.07;;
65757;SDS011;52495;52.208;5.158;2023-03-29T07:27:27;10.68;;;5.70;;
65757;SDS011;52495;52.208;5.158;2023-03-29T07:29:54;9.18;;;5.85;;
65757;SDS011;52495;52.208;5.158;2023-03-29T07:32:22;9.30;;;5.47;;
65757;SDS011;52495;52.208;5.158;2023-03-29T07:35:14;14.05;;;6.45;;
65757;SDS011;52495;52.208;5.158;2023-03-29T07:37:41;9.60;;;5.38;;
65757;SDS011;52495;52.208;5.158;2023-03-29T07:40:11;11.70;;;6.43;;
65757;SDS011;52495;52.208;5.158;2023-03-29T07:42:55;9.10;;;5.47;;
65757;SDS011;52495;52.208;5.158;2023-03-29T07:45:25;11.90;;;6.35;;
65757;SDS011;52495;52.208;5.158;2023-03-29T07:48:10;9.82;;;5.78;;
65757;SDS011;52495;52.208;5.158;2023-03-29T07:50:57;9.40;;;6.00;;
65757;SDS011;52495;52.208;5.158;2023-03-29T07:53:29;12.45;;;6.20;;
65757;SDS011;52495;52.208;5.158;2023-03-29T07:55:59;11.52;;;6.30;;
65757;SDS011;52495;52.208;5.158;2023-03-29T07:58:43;13.07;;;7.38;;
65757;SDS011;52495;52.208;5.158;2023-03-29T08:01:11;12.13;;;6.82;;
65757;SDS011;52495;52.208;5.158;2023-03-29T08:04:02;13.07;;;6.22;;
65757;SDS011;52495;52.208;5.158;2023-03-29T08:07:06;12.77;;;6.85;;
65757;SDS011;52495;52.208;5.158;2023-03-29T08:09:51;11.95;;;7.25;;
65757;SDS011;52495;52.208;5.158;2023-03-29T08:12:24;14.40;;;6.85;;
65757;SDS011;52495;52.208;5.158;2023-03-29T08:14:54;12.88;;;7.38;;
65757;SDS011;52495;52.208;5.158;2023-03-29T08:17:26;14.20;;;7.32;;
65757;SDS011;52495;52.208;5.158;2023-03-29T08:19:53;13.10;;;7.43;;
65757;SDS011;52495;52.208;5.158;2023-03-29T08:22:23;11.25;;;7.10;;
65757;SDS011;52495;52.208;5.158;2023-03-29T08:25:08;13.02;;;7.50;;
65757;SDS011;52495;52.208;5.158;2023-03-29T08:27:41;17.63;;;8.20;;
65757;SDS011;52495;52.208;5.158;2023-03-29T08:30:10;16.25;;;7.85;;
65757;SDS011;52495;52.208;5.158;2023-03-29T08:32:39;11.80;;;7.25;;
65757;SDS011;52495;52.208;5.158;2023-03-29T08:35:08;14.43;;;7.63;;
65757;SDS011;52495;52.208;5.158;2023-03-29T08:37:56;15.35;;;7.45;;
65757;SDS011;52495;52.208;5.158;2023-03-29T08:40:23;13.20;;;7.45;;
65757;SDS011;52495;52.208;5.158;2023-03-29T08:43:11;15.07;;;7.47;;
65757;SDS011;52495;52.208;5.158;2023-03-29T08:46:16;19.15;;;8.18;;
65757;SDS011;52495;52.208;5.158;2023-03-29T08:48:57;17.13;;;8.55;;
65757;SDS011;52495;52.208;5.158;2023-03-29T08:51:30;13.38;;;7.53;;
65757;SDS011;52495;52.208;5.158;2023-03-29T08:54:04;14.75;;;8.30;;
65757;SDS011;52495;52.208;5.158;2023-03-29T08:56:51;14.90;;;8.60;;
65757;SDS011;52495;52.208;5.158;2023-03-29T08:59:29;15.98;;;8.43;;
65757;SDS011;52495;52.208;5.158;2023-03-29T09:02:01;11.80;;;7.35;;
65757;SDS011;52495;52.208;5.158;2023-03-29T09:04:37;14.95;;;8.52;;
65757;SDS011;52495;52.208;5.158;2023-03-29T09:07:29;15.30;;;8.55;;
65757;SDS011;52495;52.208;5.158;2023-03-29T09:09:57;15.65;;;8.07;;
65757;SDS011;52495;52.208;5.158;2023-03-29T09:12:42;17.17;;;9.55;;
65757;SDS011;52495;52.208;5.158;2023-03-29T09:15:21;16.17;;;8.98;;
65757;SDS011;52495;52.208;5.158;2023-03-29T09:18:03;16.23;;;8.65;;
65757;SDS011;52495;52.208;5.158;2023-03-29T09:20:39;14.70;;;8.70;;
65757;SDS011;52495;52.208;5.158;2023-03-29T09:23:17;14.35;;;9.13;;
65757;SDS011;52495;52.208;5.158;2023-03-29T09:26:17;13.90;;;9.35;;
65757;SDS011;52495;52.208;5.158;2023-03-29T09:29:11;13.90;;;9.15;;
65757;SDS011;52495;52.208;5.158;2023-03-29T09:31:51;14.32;;;8.95;;
65757;SDS011;52495;52.208;5.158;2023-03-29T09:34:22;15.82;;;9.13;;
65757;SDS011;52495;52.208;5.158;2023-03-29T09:37:00;18.33;;;9.57;;
65757;SDS011;52495;52.208;5.158;2023-03-29T09:39:32;17.00;;;9.10;;
65757;SDS011;52495;52.208;5.158;2023-03-29T09:44:37;17.23;;;8.77;;
65757;SDS011;52495;52.208;5.158;2023-03-29T09:47:16;15.10;;;8.95;;
65757;SDS011;52495;52.208;5.158;2023-03-29T09:49:46;12.95;;;7.82;;
65757;SDS011;52495;52.208;5.158;2023-03-29T09:52:16;15.48;;;9.45;;
65757;SDS011;52495;52.208;5.158;2023-03-29T09:54:56;15.32;;;8.90;;
65757;SDS011;52495;52.208;5.158;2023-03-29T09:57:50;14.65;;;8.55;;
65757;SDS011;52495;52.208;5.158;2023-03-29T10:00:18;14.52;;;9.30;;
65757;SDS011;52495;52.208;5.158;2023-03-29T10:02:49;14.35;;;8.80;;
65757;SDS011;52495;52.208;5.158;2023-03-29T10:05:18;15.07;;;9.50;;
65757;SDS011;52495;52.208;5.158;2023-03-29T10:07:48;13.27;;;9.13;;
65757;SDS011;52495;52.208;5.158;2023-03-29T10:10:19;14.30;;;9.15;;
65757;SDS011;52495;52.208;5.158;2023-03-29T10:12:49;14.70;;;9.75;;
65757;SDS011;52495;52.208;5.158;2023-03-29T10:15:19;13.05;;;9.32;;
65757;SDS011;52495;52.208;5.158;2023-03-29T10:17:47;16.80;;;10.20;;
65757;SDS011;52495;52.208;5.158;2023-03-29T10:20:14;13.73;;;8.90;;
65757;SDS011;52495;52.208;5.158;2023-03-29T10:22:46;17.70;;;10.18;;
65757;SDS011;52495;52.208;5.158;2023-03-29T10:25:15;19.05;;;11.05;;
65757;SDS011;52495;52.208;5.158;2023-03-29T10:27:44;20.52;;;11.50;;
65757;SDS011;52495;52.208;5.158;2023-03-29T10:30:19;12.65;;;8.32;;
65757;SDS011;52495;52.208;5.158;2023-03-29T10:32:51;18.23;;;9.82;;
65757;SDS011;52495;52.208;5.158;2023-03-29T10:35:22;13.90;;;9.88;;
65757;SDS011;52495;52.208;5.158;2023-03-29T10:37:54;14.68;;;8.55;;
65757;SDS011;52495;52.208;5.158;2023-03-29T10:40:25;16.23;;;9.45;;
65757;SDS011;52495;52.208;5.158;2023-03-29T10:42:56;14.27;;;9.07;;
65757;SDS011;52495;52.208;5.158;2023-03-29T10:45:27;17.75;;;10.15;;
65757;SDS011;52495;52.208;5.158;2023-03-29T10:47:56;15.75;;;9.82;;
65757;SDS011;52495;52.208;5.158;2023-03-29T10:50:24;16.42;;;9.07;;
65757;SDS011;52495;52.208;5.158;2023-03-29T10:52:52;13.25;;;9.13;;
65757;SDS011;52495;52.208;5.158;2023-03-29T10:55:19;12.65;;;8.32;;
65757;SDS011;52495;52.208;5.158;2023-03-29T10:57:51;16.48;;;8.63;;
65757;SDS011;52495;52.208;5.158;2023-03-29T11:00:29;12.60;;;8.75;;
65757;SDS011;52495;52.208;5.158;2023-03-29T11:03:06;17.60;;;9.65;;
65757;SDS011;52495;52.208;5.158;2023-03-29T11:05:42;12.57;;;9.57;;
65757;SDS011;52495;52.208;5.158;2023-03-29T11:08:21;14.70;;;9.02;;
65757;SDS011;52495;52.208;5.158;2023-03-29T11:10:57;16.95;;;9.63;;
65757;SDS011;52495;52.208;5.158;2023-03-29T11:13:35;13.05;;;8.90;;
65757;SDS011;52495;52.208;5.158;2023-03-29T11:16:14;13.35;;;9.13;;
65757;SDS011;52495;52.208;5.158;2023-03-29T11:21:47;14.35;;;9.68;;
65757;SDS011;52495;52.208;5.158;2023-03-29T11:24:27;16.40;;;9.85;;
65757;SDS011;52495;52.208;5.158;2023-03-29T11:27:11;13.70;;;9.20;;
65757;SDS011;52495;52.208;5.158;2023-03-29T11:29:47;12.32;;;8.75;;
65757;SDS011;52495;52.208;5.158;2023-03-29T11:32:26;15.80;;;9.20;;
65757;SDS011;52495;52.208;5.158;2023-03-29T11:35:02;14.65;;;9.13;;
65757;SDS011;52495;52.208;5.158;2023-03-29T11:37:40;14.45;;;9.25;;
65757;SDS011;52495;52.208;5.158;2023-03-29T11:40:21;14.25;;;8.80;;
65757;SDS011;52495;52.208;5.158;2023-03-29T11:43:01;11.60;;;8.77;;
65757;SDS011;52495;52.208;5.158;2023-03-29T11:45:33;12.10;;;8.98;;
65757;SDS011;52495;52.208;5.158;2023-03-29T11:50:38;13.80;;;10.00;;
65757;SDS011;52495;52.208;5.158;2023-03-29T11:53:12;12.65;;;10.18;;
65757;SDS011;52495;52.208;5.158;2023-03-29T11:55:43;16.38;;;11.23;;
65757;SDS011;52495;52.208;5.158;2023-03-29T11:58:11;16.83;;;11.80;;
65757;SDS011;52495;52.208;5.158;2023-03-29T12:00:47;16.85;;;12.77;;
65757;SDS011;52495;52.208;5.158;2023-03-29T12:03:20;15.18;;;11.43;;
65757;SDS011;52495;52.208;5.158;2023-03-29T12:05:57;14.98;;;11.85;;
65757;SDS011;52495;52.208;5.158;2023-03-29T12:08:29;19.38;;;12.18;;
65757;SDS011;52495;52.208;5.158;2023-03-29T12:11:01;19.23;;;11.82;;
65757;SDS011;52495;52.208;5.158;2023-03-29T12:13:33;17.20;;;11.93;;
65757;SDS011;52495;52.208;5.158;2023-03-29T12:18:40;14.70;;;11.60;;
65757;SDS011;52495;52.208;5.158;2023-03-29T12:21:11;18.30;;;11.10;;
65757;SDS011;52495;52.208;5.158;2023-03-29T12:23:42;15.60;;;10.57;;
65757;SDS011;52495;52.208;5.158;2023-03-29T12:26:11;15.23;;;12.60;;
65757;SDS011;52495;52.208;5.158;2023-03-29T12:29:01;18.50;;;14.27;;
65757;SDS011;52495;52.208;5.158;2023-03-29T12:31:42;31.92;;;26.33;;
65757;SDS011;52495;52.208;5.158;2023-03-29T12:34:32;18.90;;;14.82;;
65757;SDS011;52495;52.208;5.158;2023-03-29T12:40:41;46.60;;;36.67;;
65757;SDS011;52495;52.208;5.158;2023-03-29T12:43:29;16.10;;;13.10;;
65757;SDS011;52495;52.208;5.158;2023-03-29T12:46:24;20.13;;;12.77;;
65757;SDS011;52495;52.208;5.158;2023-03-29T12:48:53;18.73;;;12.73;;
65757;SDS011;52495;52.208;5.158;2023-03-29T12:51:26;18.38;;;12.73;;
65757;SDS011;52495;52.208;5.158;2023-03-29T12:53:59;11.68;;;8.15;;
65757;SDS011;52495;52.208;5.158;2023-03-29T12:56:38;19.23;;;12.45;;
65757;SDS011;52495;52.208;5.158;2023-03-29T13:01:51;17.67;;;12.00;;
65757;SDS011;52495;52.208;5.158;2023-03-29T13:04:32;16.08;;;12.40;;
65757;SDS011;52495;52.208;5.158;2023-03-29T13:07:04;17.77;;;11.88;;
65757;SDS011;52495;52.208;5.158;2023-03-29T13:09:32;18.45;;;11.85;;
65757;SDS011;52495;52.208;5.158;2023-03-29T13:12:05;16.25;;;10.93;;
65757;SDS011;52495;52.208;5.158;2023-03-29T13:14:39;13.90;;;11.40;;
65757;SDS011;52495;52.208;5.158;2023-03-29T13:17:09;16.35;;;10.80;;
65757;SDS011;52495;52.208;5.158;2023-03-29T13:19:46;14.10;;;9.93;;
65757;SDS011;52495;52.208;5.158;2023-03-29T13:22:21;13.93;;;10.20;;
65757;SDS011;52495;52.208;5.158;2023-03-29T13:24:59;14.25;;;9.82;;
65757;SDS011;52495;52.208;5.158;2023-03-29T13:27:37;17.08;;;10.80;;
65757;SDS011;52495;52.208;5.158;2023-03-29T13:30:23;15.85;;;10.15;;
65757;SDS011;52495;52.208;5.158;2023-03-29T13:33:02;14.00;;;9.82;;
65757;SDS011;52495;52.208;5.158;2023-03-29T13:35:40;14.85;;;10.23;;
65757;SDS011;52495;52.208;5.158;2023-03-29T13:38:18;17.25;;;10.60;;
65757;SDS011;52495;52.208;5.158;2023-03-29T13:41:02;15.43;;;10.13;;
65757;SDS011;52495;52.208;5.158;2023-03-29T13:43:32;13.48;;;10.50;;
65757;SDS011;52495;52.208;5.158;2023-03-29T13:46:19;15.88;;;11.27;;
65757;SDS011;52495;52.208;5.158;2023-03-29T13:48:51;11.85;;;9.50;;
65757;SDS011;52495;52.208;5.158;2023-03-29T13:51:30;13.88;;;9.68;;
65757;SDS011;52495;52.208;5.158;2023-03-29T13:54:05;17.70;;;10.73;;
65757;SDS011;52495;52.208;5.158;2023-03-29T13:56:40;17.17;;;10.27;;
65757;SDS011;52495;52.208;5.158;2023-03-29T13:59:19;15.80;;;10.95;;
65757;SDS011;52495;52.208;5.158;2023-03-29T14:01:53;13.65;;;9.93;;
65757;SDS011;52495;52.208;5.158;2023-03-29T14:04:25;17.92;;;11.55;;
65757;SDS011;52495;52.208;5.158;2023-03-29T14:06:56;17.00;;;10.63;;
65757;SDS011;52495;52.208;5.158;2023-03-29T14:09:26;16.20;;;11.05;;
65757;SDS011;52495;52.208;5.158;2023-03-29T14:11:55;13.25;;;9.90;;
65757;SDS011;52495;52.208;5.158;2023-03-29T14:14:24;17.00;;;11.73;;
65757;SDS011;52495;52.208;5.158;2023-03-29T14:16:53;17.58;;;12.07;;
65757;SDS011;52495;52.208;5.158;2023-03-29T14:19:23;16.17;;;11.65;;
65757;SDS011;52495;52.208;5.158;2023-03-29T14:21:56;15.00;;;11.75;;
65757;SDS011;52495;52.208;5.158;2023-03-29T14:24:27;36.72;;;28.13;;
65757;SDS011;52495;52.208;5.158;2023-03-29T14:27:00;18.95;;;12.80;;
65757;SDS011;52495;52.208;5.158;2023-03-29T14:29:29;18.05;;;12.95;;
65757;SDS011;52495;52.208;5.158;2023-03-29T14:31:56;19.13;;;12.85;;
65757;SDS011;52495;52.208;5.158;2023-03-29T14:34:34;17.23;;;13.80;;
65757;SDS011;52495;52.208;5.158;2023-03-29T14:37:01;17.35;;;14.00;;
65757;SDS011;52495;52.208;5.158;2023-03-29T14:39:30;16.70;;;13.38;;
65757;SDS011;52495;52.208;5.158;2023-03-29T14:41:58;18.70;;;13.55;;
65757;SDS011;52495;52.208;5.158;2023-03-29T14:44:26;16.13;;;13.20;;
65757;SDS011;52495;52.208;5.158;2023-03-29T14:46:56;17.35;;;13.55;;
65757;SDS011;52495;52.208;5.158;2023-03-29T14:49:24;19.95;;;14.45;;
65757;SDS011;52495;52.208;5.158;2023-03-29T14:51:51;15.40;;;12.73;;
65757;SDS011;52495;52.208;5.158;2023-03-29T14:54:19;18.70;;;13.93;;
65757;SDS011;52495;52.208;5.158;2023-03-29T14:56:49;18.90;;;14.20;;
65757;SDS011;52495;52.208;5.158;2023-03-29T15:02:02;18.20;;;14.05;;
65757;SDS011;52495;52.208;5.158;2023-03-29T15:04:31;19.40;;;14.90;;
65757;SDS011;52495;52.208;5.158;2023-03-29T15:06:59;16.83;;;14.30;;
65757;SDS011;52495;52.208;5.158;2023-03-29T15:09:27;15.63;;;13.80;;
65757;SDS011;52495;52.208;5.158;2023-03-29T15:12:00;15.27;;;11.90;;
65757;SDS011;52495;52.208;5.158;2023-03-29T15:14:28;14.95;;;12.38;;
65757;SDS011;52495;52.208;5.158;2023-03-29T15:16:59;16.00;;;12.38;;
65757;SDS011;52495;52.208;5.158;2023-03-29T15:19:28;16.95;;;13.73;;
65757;SDS011;52495;52.208;5.158;2023-03-29T15:21:56;17.33;;;14.63;;
65757;SDS011;52495;52.208;5.158;2023-03-29T15:24:26;16.88;;;13.25;;
65757;SDS011;52495;52.208;5.158;2023-03-29T15:27:00;17.75;;;12.75;;
65757;SDS011;52495;52.208;5.158;2023-03-29T15:29:33;18.05;;;12.48;;
65757;SDS011;52495;52.208;5.158;2023-03-29T15:32:02;15.25;;;12.45;;
65757;SDS011;52495;52.208;5.158;2023-03-29T15:34:29;17.52;;;13.80;;
65757;SDS011;52495;52.208;5.158;2023-03-29T15:36:57;16.58;;;13.63;;
65757;SDS011;52495;52.208;5.158;2023-03-29T15:39:25;15.68;;;12.85;;
65757;SDS011;52495;52.208;5.158;2023-03-29T15:41:53;15.88;;;12.18;;